createdAt,value
2017-02-28T00:00:22.080Z,0
2017-02-28T00:01:32.760Z,0
2017-02-28T00:02:43.580Z,0
2017-02-28T00:03:54.263Z,0
2017-02-28T00:05:04.131Z,0
2017-02-28T00:06:14.435Z,0
2017-02-28T00:07:25.120Z,0
2017-02-28T00:08:35.548Z,0
2017-02-28T00:09:45.815Z,0
2017-02-28T00:10:56.491Z,0
2017-02-28T00:12:07.168Z,0
2017-02-28T00:13:17.064Z,0
2017-02-28T00:14:27.096Z,0
2017-02-28T00:15:37.362Z,0
2017-02-28T00:16:48.011Z,0
2017-02-28T00:17:58.283Z,0
2017-02-28T00:19:08.965Z,0
2017-02-28T00:20:18.998Z,0
2017-02-28T00:21:28.887Z,0
2017-02-28T00:22:39.550Z,0
2017-02-28T00:23:50.222Z,0
2017-02-28T00:25:00.506Z,0
2017-02-28T00:26:10.889Z,0
2017-02-28T00:27:20.782Z,0
2017-02-28T00:28:30.652Z,0
2017-02-28T00:29:40.547Z,0
2017-02-28T00:30:50.805Z,0
2017-02-28T00:32:01.590Z,0
2017-02-28T00:33:11.869Z,0
2017-02-28T00:34:22.540Z,0
2017-02-28T00:35:33.188Z,0
2017-02-28T00:36:43.865Z,0
2017-02-28T00:37:53.929Z,0
2017-02-28T00:39:04.609Z,0
2017-02-28T00:40:15.264Z,0
2017-02-28T00:41:25.551Z,0
2017-02-28T00:42:36.231Z,0
2017-02-28T00:43:46.988Z,0
2017-02-28T00:44:57.295Z,0
2017-02-28T00:46:07.174Z,0
2017-02-28T00:47:17.848Z,0
2017-02-28T00:48:28.509Z,0
2017-02-28T00:49:39.277Z,0
2017-02-28T00:50:49.538Z,0
2017-02-28T00:52:00.190Z,0
2017-02-28T00:53:10.494Z,0
2017-02-28T00:54:20.378Z,0
2017-02-28T00:55:30.745Z,0
2017-02-28T00:56:41.017Z,0
2017-02-28T00:57:51.304Z,0
2017-02-28T00:59:01.575Z,0
2017-02-28T01:00:12.289Z,0
2017-02-28T01:01:22.733Z,0
2017-02-28T01:02:33.022Z,0
2017-02-28T01:03:43.678Z,0
2017-02-28T01:04:53.935Z,0
2017-02-28T01:06:04.214Z,0
2017-02-28T01:07:15.309Z,0
2017-02-28T01:08:25.593Z,0
2017-02-28T01:09:36.249Z,0
2017-02-28T01:10:46.916Z,0
2017-02-28T01:11:57.187Z,0
2017-02-28T01:13:08.061Z,0
2017-02-28T01:14:18.358Z,0
2017-02-28T01:15:29.046Z,0
2017-02-28T01:16:39.326Z,0
2017-02-28T01:17:50.001Z,0
2017-02-28T01:19:00.435Z,0
2017-02-28T01:20:10.705Z,0
2017-02-28T01:21:20.983Z,0
2017-02-28T01:22:30.859Z,0
2017-02-28T01:23:41.144Z,0
2017-02-28T01:24:51.575Z,0
2017-02-28T01:26:01.876Z,0
2017-02-28T01:27:11.768Z,0
2017-02-28T01:28:22.047Z,0
2017-02-28T01:29:32.332Z,0
2017-02-28T01:30:42.745Z,0
2017-02-28T01:31:53.422Z,0
2017-02-28T01:33:04.109Z,0
2017-02-28T01:34:14.785Z,0
2017-02-28T01:35:25.067Z,0
2017-02-28T01:36:35.870Z,0
2017-02-28T01:37:46.138Z,0
2017-02-28T01:38:56.828Z,0
2017-02-28T01:40:06.334Z,0
2017-02-28T01:41:15.841Z,0
2017-02-28T01:42:25.509Z,0
2017-02-28T01:43:35.800Z,0
2017-02-28T01:44:46.473Z,0
2017-02-28T01:45:56.783Z,0
2017-02-28T01:47:07.472Z,0
2017-02-28T01:48:18.307Z,0
2017-02-28T01:49:28.569Z,0
2017-02-28T01:50:38.835Z,0
2017-02-28T01:51:49.122Z,0
2017-02-28T01:52:59.797Z,0
2017-02-28T01:54:10.620Z,0
2017-02-28T01:55:21.277Z,0
2017-02-28T01:56:31.542Z,0
2017-02-28T01:57:42.198Z,0
2017-02-28T01:58:52.854Z,0
2017-02-28T02:00:03.266Z,0
2017-02-28T02:01:13.165Z,0
2017-02-28T02:02:23.841Z,0
2017-02-28T02:03:34.402Z,0
2017-02-28T02:04:44.682Z,0
2017-02-28T02:05:55.489Z,0
2017-02-28T02:07:06.164Z,0
2017-02-28T02:08:16.825Z,0
2017-02-28T02:09:27.104Z,0
2017-02-28T02:10:37.380Z,0
2017-02-28T02:11:47.807Z,0
2017-02-28T02:12:58.076Z,0
2017-02-28T02:14:08.750Z,0
2017-02-28T02:15:18.674Z,0
2017-02-28T02:16:28.173Z,0
2017-02-28T02:17:38.978Z,0
2017-02-28T02:18:49.261Z,0
2017-02-28T02:19:59.913Z,0
2017-02-28T02:21:10.585Z,0
2017-02-28T02:22:21.241Z,0
2017-02-28T02:23:32.074Z,0
2017-02-28T02:24:41.962Z,0
2017-02-28T02:25:52.626Z,0
2017-02-28T02:27:02.504Z,0
2017-02-28T02:28:13.150Z,0
2017-02-28T02:29:23.916Z,0
2017-02-28T02:30:34.208Z,0
2017-02-28T02:31:44.114Z,0
2017-02-28T02:32:54.804Z,0
2017-02-28T02:34:05.478Z,0
2017-02-28T02:35:16.240Z,0
2017-02-28T02:36:26.896Z,0
2017-02-28T02:37:37.180Z,0
2017-02-28T02:38:47.456Z,0
2017-02-28T02:39:57.736Z,0
2017-02-28T02:41:08.489Z,0
2017-02-28T02:42:19.131Z,0
2017-02-28T02:43:29.812Z,0
2017-02-28T02:44:40.465Z,0
2017-02-28T02:45:51.145Z,0
2017-02-28T02:47:01.521Z,0
2017-02-28T02:48:11.425Z,0
2017-02-28T02:49:21.289Z,0
2017-02-28T02:50:31.559Z,0
2017-02-28T02:51:41.831Z,0
2017-02-28T02:52:52.215Z,0
2017-02-28T02:54:02.496Z,0
2017-02-28T02:55:12.768Z,0
2017-02-28T02:56:23.038Z,0
2017-02-28T02:57:33.302Z,0
2017-02-28T02:58:44.120Z,0
2017-02-28T02:59:54.423Z,0
2017-02-28T03:01:04.720Z,0
2017-02-28T03:02:15.007Z,0
2017-02-28T03:03:25.678Z,0
2017-02-28T03:04:36.524Z,0
2017-02-28T03:05:47.184Z,0
2017-02-28T03:06:57.737Z,0
2017-02-28T03:08:08.017Z,0
2017-02-28T03:09:18.665Z,0
2017-02-28T03:10:29.079Z,0
2017-02-28T03:11:39.353Z,0
2017-02-28T03:12:49.632Z,0
2017-02-28T03:13:59.512Z,0
2017-02-28T03:15:10.186Z,0
2017-02-28T03:16:21.229Z,0
2017-02-28T03:17:31.101Z,0
2017-02-28T03:18:41.386Z,0
2017-02-28T03:19:52.066Z,0
2017-02-28T03:21:02.337Z,0
2017-02-28T03:22:12.369Z,0
2017-02-28T03:23:21.891Z,0
2017-02-28T03:24:31.778Z,0
2017-02-28T03:25:42.055Z,0
2017-02-28T03:26:52.316Z,0
2017-02-28T03:28:03.121Z,0
2017-02-28T03:29:13.773Z,0
2017-02-28T03:30:24.044Z,0
2017-02-28T03:31:34.331Z,0
2017-02-28T03:32:44.618Z,0
2017-02-28T03:33:55.416Z,0
2017-02-28T03:35:05.705Z,0
2017-02-28T03:36:16.364Z,0
2017-02-28T03:37:27.023Z,0
2017-02-28T03:38:37.698Z,0
2017-02-28T03:39:48.128Z,0
2017-02-28T03:40:58.420Z,0
2017-02-28T03:42:07.911Z,0
2017-02-28T03:43:17.839Z,0
2017-02-28T03:44:27.719Z,0
2017-02-28T03:45:38.524Z,0
2017-02-28T03:46:49.169Z,0
2017-02-28T03:47:59.049Z,0
2017-02-28T03:49:09.714Z,0
2017-02-28T03:50:19.979Z,0
2017-02-28T03:51:30.413Z,0
2017-02-28T03:52:40.695Z,0
2017-02-28T03:53:50.622Z,0
2017-02-28T03:55:00.903Z,0
2017-02-28T03:56:10.882Z,0
2017-02-28T03:57:21.315Z,0
2017-02-28T03:58:31.583Z,0
2017-02-28T03:59:42.244Z,0
2017-02-28T04:00:52.545Z,0
2017-02-28T04:02:02.812Z,0
2017-02-28T04:03:13.639Z,0
2017-02-28T04:04:24.302Z,0
2017-02-28T04:05:34.593Z,0
2017-02-28T04:06:44.513Z,0
2017-02-28T04:07:55.164Z,0
2017-02-28T04:09:05.596Z,0
2017-02-28T04:10:16.258Z,0
2017-02-28T04:11:26.526Z,0
2017-02-28T04:12:37.182Z,0
2017-02-28T04:13:47.506Z,0
2017-02-28T04:14:57.943Z,0
2017-02-28T04:16:07.829Z,0
2017-02-28T04:17:18.115Z,0
2017-02-28T04:18:28.768Z,0
2017-02-28T04:19:39.413Z,0
2017-02-28T04:20:50.333Z,0
2017-02-28T04:22:00.632Z,0
2017-02-28T04:23:10.899Z,0
2017-02-28T04:24:21.557Z,0
2017-02-28T04:25:31.831Z,0
2017-02-28T04:26:42.644Z,0
2017-02-28T04:27:52.927Z,0
2017-02-28T04:29:02.835Z,0
2017-02-28T04:30:12.337Z,0
2017-02-28T04:31:22.209Z,0
2017-02-28T04:32:32.242Z,0
2017-02-28T04:33:42.536Z,0
2017-02-28T04:34:52.431Z,0
2017-02-28T04:36:03.113Z,0
2017-02-28T04:37:13.397Z,0
2017-02-28T04:38:23.979Z,0
2017-02-28T04:39:34.555Z,0
2017-02-28T04:40:44.851Z,0
2017-02-28T04:41:55.132Z,0
2017-02-28T04:43:05.423Z,0
2017-02-28T04:44:16.383Z,0
2017-02-28T04:45:26.248Z,0
2017-02-28T04:46:36.509Z,0
2017-02-28T04:47:47.191Z,0
2017-02-28T04:48:57.844Z,0
2017-02-28T04:50:08.035Z,0
2017-02-28T04:51:18.323Z,0
2017-02-28T04:52:28.602Z,0
2017-02-28T04:53:38.483Z,0
2017-02-28T04:54:48.760Z,0
2017-02-28T04:55:59.516Z,0
2017-02-28T04:57:10.182Z,0
2017-02-28T04:58:20.065Z,0
2017-02-28T04:59:30.054Z,0
2017-02-28T05:00:40.723Z,0
2017-02-28T05:01:51.486Z,0
2017-02-28T05:03:02.140Z,0
2017-02-28T05:04:12.041Z,0
2017-02-28T05:05:22.323Z,0
2017-02-28T05:06:32.598Z,0
2017-02-28T05:07:42.593Z,0
2017-02-28T05:08:52.878Z,0
2017-02-28T05:10:02.767Z,0
2017-02-28T05:11:13.456Z,0
2017-02-28T05:12:23.709Z,0
2017-02-28T05:13:34.472Z,0
2017-02-28T05:14:44.749Z,0
2017-02-28T05:15:55.037Z,0
2017-02-28T05:17:05.712Z,0
2017-02-28T05:18:16.376Z,0
2017-02-28T05:19:26.744Z,0
2017-02-28T05:20:36.628Z,0
2017-02-28T05:21:46.908Z,0
2017-02-28T05:22:57.571Z,0
2017-02-28T05:24:07.466Z,0
2017-02-28T05:25:17.496Z,0
2017-02-28T05:26:27.417Z,0
2017-02-28T05:27:37.711Z,0
2017-02-28T05:28:48.420Z,0
2017-02-28T05:29:58.728Z,0
2017-02-28T05:31:09.352Z,0
2017-02-28T05:32:19.644Z,0
2017-02-28T05:33:29.556Z,0
2017-02-28T05:34:39.824Z,0
2017-02-28T05:35:50.500Z,0
2017-02-28T05:37:00.928Z,0
2017-02-28T05:38:11.573Z,0
2017-02-28T05:39:22.531Z,0
2017-02-28T05:40:33.182Z,0
2017-02-28T05:41:43.442Z,0
2017-02-28T05:42:53.888Z,0
2017-02-28T05:44:03.812Z,0
2017-02-28T05:45:14.081Z,0
2017-02-28T05:46:24.748Z,0
2017-02-28T05:47:35.406Z,0
2017-02-28T05:48:46.318Z,0
2017-02-28T05:49:56.589Z,0
2017-02-28T05:51:07.256Z,0
2017-02-28T05:52:16.756Z,0
2017-02-28T05:53:27.051Z,0
2017-02-28T05:54:37.864Z,0
2017-02-28T05:55:48.148Z,0
2017-02-28T05:56:58.820Z,0
2017-02-28T05:58:09.504Z,0
2017-02-28T05:59:20.154Z,0
2017-02-28T06:00:30.174Z,0
2017-02-28T06:01:40.837Z,0
2017-02-28T06:02:51.135Z,0
2017-02-28T06:04:01.779Z,0
2017-02-28T06:05:12.441Z,0
2017-02-28T06:06:23.280Z,0
2017-02-28T06:07:33.574Z,0
2017-02-28T06:08:44.259Z,0
2017-02-28T06:09:54.161Z,0
2017-02-28T06:11:04.833Z,0
2017-02-28T06:12:14.877Z,0
2017-02-28T06:13:25.159Z,0
2017-02-28T06:14:35.815Z,0
2017-02-28T06:15:46.514Z,0
2017-02-28T06:16:56.403Z,0
2017-02-28T06:18:06.039Z,0
2017-02-28T06:19:16.318Z,0
2017-02-28T06:20:26.612Z,0
2017-02-28T06:21:37.290Z,0
2017-02-28T06:22:47.186Z,0
2017-02-28T06:23:57.993Z,0
2017-02-28T06:25:07.863Z,0
2017-02-28T06:26:18.129Z,0
2017-02-28T06:27:27.630Z,0
2017-02-28T06:28:38.297Z,0
2017-02-28T06:29:49.094Z,0
2017-02-28T06:30:59.758Z,0
2017-02-28T06:32:10.416Z,0
2017-02-28T06:33:20.317Z,0
2017-02-28T06:34:30.581Z,0
2017-02-28T06:35:41.016Z,0
2017-02-28T06:36:51.285Z,0
2017-02-28T06:38:01.938Z,0
2017-02-28T06:39:11.838Z,0
2017-02-28T06:40:22.121Z,0
2017-02-28T06:41:32.556Z,0
2017-02-28T06:42:43.230Z,0
2017-02-28T06:43:53.913Z,0
2017-02-28T06:45:04.212Z,0
2017-02-28T06:46:14.476Z,5
2017-02-28T06:47:25.327Z,5
2017-02-28T06:48:36.001Z,5
2017-02-28T06:49:46.677Z,5
2017-02-28T06:50:57.356Z,5
2017-02-28T06:52:07.625Z,5
2017-02-28T06:53:17.319Z,5
2017-02-28T06:54:27.262Z,5
2017-02-28T06:55:37.543Z,5
2017-02-28T06:56:47.838Z,5
2017-02-28T06:57:57.348Z,5
2017-02-28T06:59:07.914Z,5
2017-02-28T07:00:18.575Z,10
2017-02-28T07:01:28.072Z,10
2017-02-28T07:02:38.375Z,10
2017-02-28T07:03:49.062Z,10
2017-02-28T07:04:59.068Z,10
2017-02-28T07:06:09.736Z,10
2017-02-28T07:07:20.046Z,10
2017-02-28T07:08:30.333Z,10
2017-02-28T07:09:40.629Z,10
2017-02-28T07:10:51.455Z,10
2017-02-28T07:12:01.332Z,10
2017-02-28T07:13:11.638Z,10
2017-02-28T07:14:22.305Z,10
2017-02-28T07:15:32.610Z,10
2017-02-28T07:16:42.606Z,15
2017-02-28T07:17:52.869Z,15
2017-02-28T07:19:02.769Z,15
2017-02-28T07:20:13.726Z,20
2017-02-28T07:21:23.996Z,25
2017-02-28T07:22:34.775Z,25
2017-02-28T07:23:45.430Z,25
2017-02-28T07:24:56.127Z,20
2017-02-28T07:26:06.041Z,20
2017-02-28T07:27:16.355Z,15
2017-02-28T07:28:25.972Z,25
2017-02-28T07:29:36.632Z,25
2017-02-28T07:30:47.305Z,25
2017-02-28T07:31:57.979Z,20
2017-02-28T07:33:08.264Z,20
2017-02-28T07:34:18.717Z,15
2017-02-28T07:35:29.417Z,15
2017-02-28T07:36:39.739Z,15
2017-02-28T07:37:50.408Z,15
2017-02-28T07:39:00.694Z,15
2017-02-28T07:40:10.758Z,15
2017-02-28T07:41:20.669Z,15
2017-02-28T07:42:30.960Z,15
2017-02-28T07:43:41.659Z,20
2017-02-28T07:44:52.326Z,20
2017-02-28T07:46:02.802Z,15
2017-02-28T07:47:13.482Z,15
2017-02-28T07:48:24.161Z,20
2017-02-28T07:49:34.832Z,20
2017-02-28T07:50:45.494Z,20
2017-02-28T07:51:55.943Z,15
2017-02-28T07:53:05.859Z,15
2017-02-28T07:54:16.547Z,15
2017-02-28T07:55:26.819Z,15
2017-02-28T07:56:37.077Z,20
2017-02-28T07:57:47.151Z,20
2017-02-28T07:58:57.852Z,20
2017-02-28T08:00:08.525Z,20
2017-02-28T08:01:18.817Z,25
2017-02-28T08:02:29.086Z,25
2017-02-28T08:03:39.905Z,25
2017-02-28T08:04:50.193Z,25
2017-02-28T08:06:00.897Z,30
2017-02-28T08:07:11.200Z,35
2017-02-28T08:08:21.900Z,35
2017-02-28T08:09:31.947Z,30
2017-02-28T08:10:41.849Z,30
2017-02-28T08:11:52.133Z,30
2017-02-28T08:13:02.842Z,30
2017-02-28T08:14:12.757Z,25
2017-02-28T08:15:23.180Z,25
2017-02-28T08:16:32.721Z,25
2017-02-28T08:17:43.396Z,25
2017-02-28T08:18:53.957Z,25
2017-02-28T08:20:04.250Z,25
2017-02-28T08:21:15.093Z,30
2017-02-28T08:22:25.788Z,35
2017-02-28T08:23:36.099Z,25
2017-02-28T08:24:46.022Z,25
2017-02-28T08:25:56.700Z,25
2017-02-28T08:27:07.548Z,25
2017-02-28T08:28:18.228Z,25
2017-02-28T08:29:28.512Z,25
2017-02-28T08:30:38.034Z,35
2017-02-28T08:31:47.955Z,35
2017-02-28T08:32:58.882Z,30
2017-02-28T08:34:09.578Z,30
2017-02-28T08:35:19.894Z,35
2017-02-28T08:36:29.415Z,35
2017-02-28T08:37:40.114Z,30
2017-02-28T08:38:50.554Z,30
2017-02-28T08:40:01.203Z,35
2017-02-28T08:41:11.486Z,40
2017-02-28T08:42:21.750Z,45
2017-02-28T08:43:32.046Z,45
2017-02-28T08:44:42.867Z,45
2017-02-28T08:45:52.759Z,40
2017-02-28T08:47:03.124Z,40
2017-02-28T08:48:13.024Z,30
2017-02-28T08:49:23.685Z,40
2017-02-28T08:50:34.504Z,45
2017-02-28T08:51:44.767Z,30
2017-02-28T08:52:55.037Z,40
2017-02-28T08:54:05.351Z,45
2017-02-28T08:55:15.633Z,45
2017-02-28T08:56:26.435Z,40
2017-02-28T08:57:36.335Z,40
2017-02-28T08:58:46.608Z,35
2017-02-28T08:59:57.277Z,35
2017-02-28T09:01:07.196Z,45
2017-02-28T09:02:17.261Z,35
2017-02-28T09:03:27.156Z,30
2017-02-28T09:04:37.818Z,30
2017-02-28T09:05:48.106Z,25
2017-02-28T09:06:58.776Z,25
2017-02-28T09:08:09.541Z,30
2017-02-28T09:09:19.062Z,30
2017-02-28T09:10:29.354Z,30
2017-02-28T09:11:39.256Z,30
2017-02-28T09:12:49.568Z,25
2017-02-28T09:13:59.965Z,25
2017-02-28T09:15:10.631Z,30
2017-02-28T09:16:20.545Z,30
2017-02-28T09:17:31.224Z,40
2017-02-28T09:18:41.529Z,30
2017-02-28T09:19:52.455Z,25
2017-02-28T09:21:03.025Z,25
2017-02-28T09:22:13.985Z,30
2017-02-28T09:23:23.918Z,30
2017-02-28T09:24:34.230Z,35
2017-02-28T09:25:44.218Z,30
2017-02-28T09:26:54.898Z,30
2017-02-28T09:28:04.791Z,25
2017-02-28T09:29:15.086Z,25
2017-02-28T09:30:25.396Z,20
2017-02-28T09:31:35.792Z,25
2017-02-28T09:32:46.445Z,30
2017-02-28T09:33:57.144Z,35
2017-02-28T09:35:07.425Z,35
2017-02-28T09:36:17.712Z,30
2017-02-28T09:37:28.138Z,30
2017-02-28T09:38:38.432Z,30
2017-02-28T09:39:48.702Z,30
2017-02-28T09:40:58.190Z,30
2017-02-28T09:42:08.081Z,35
2017-02-28T09:43:18.889Z,35
2017-02-28T09:44:29.192Z,40
2017-02-28T09:45:39.486Z,40
2017-02-28T09:46:49.374Z,35
2017-02-28T09:47:59.686Z,35
2017-02-28T09:49:09.349Z,30
2017-02-28T09:50:19.604Z,35
2017-02-28T09:51:30.247Z,35
2017-02-28T09:52:40.900Z,30
2017-02-28T09:53:50.783Z,35
2017-02-28T09:55:01.228Z,35
2017-02-28T09:56:11.500Z,35
2017-02-28T09:57:21.381Z,30
2017-02-28T09:58:31.307Z,35
2017-02-28T09:59:41.585Z,45
2017-02-28T10:00:51.670Z,40
2017-02-28T10:02:01.952Z,35
2017-02-28T10:03:12.239Z,35
2017-02-28T10:04:22.554Z,35
2017-02-28T10:05:32.840Z,35
2017-02-28T10:06:42.945Z,30
2017-02-28T10:07:53.256Z,25
2017-02-28T10:09:03.172Z,25
2017-02-28T10:10:14.030Z,25
2017-02-28T10:11:24.320Z,35
2017-02-28T10:12:34.757Z,40
2017-02-28T10:13:45.332Z,40
2017-02-28T10:14:55.258Z,40
2017-02-28T10:16:05.931Z,35
2017-02-28T10:17:16.814Z,30
2017-02-28T10:18:27.365Z,35
2017-02-28T10:19:37.627Z,30
2017-02-28T10:20:47.912Z,35
2017-02-28T10:21:58.595Z,30
2017-02-28T10:23:09.280Z,35
2017-02-28T10:24:18.741Z,35
2017-02-28T10:25:29.429Z,35
2017-02-28T10:26:39.706Z,35
2017-02-28T10:27:49.218Z,30
2017-02-28T10:28:59.502Z,30
2017-02-28T10:30:09.916Z,30
2017-02-28T10:31:20.182Z,35
2017-02-28T10:32:30.469Z,35
2017-02-28T10:33:40.800Z,35
2017-02-28T10:34:51.089Z,30
2017-02-28T10:36:01.137Z,25
2017-02-28T10:37:11.411Z,25
2017-02-28T10:38:22.071Z,25
2017-02-28T10:39:32.756Z,15
2017-02-28T10:40:43.132Z,20
2017-02-28T10:41:54.131Z,20
2017-02-28T10:43:04.029Z,20
2017-02-28T10:44:14.317Z,25
2017-02-28T10:45:24.593Z,20
2017-02-28T10:46:35.282Z,20
2017-02-28T10:47:45.759Z,20
2017-02-28T10:48:56.050Z,20
2017-02-28T10:50:05.941Z,25
2017-02-28T10:51:16.331Z,20
2017-02-28T10:52:26.369Z,25
2017-02-28T10:53:36.794Z,25
2017-02-28T10:54:46.731Z,25
2017-02-28T10:55:57.016Z,25
2017-02-28T10:57:06.511Z,25
2017-02-28T10:58:17.183Z,25
2017-02-28T10:59:27.227Z,25
2017-02-28T11:00:37.495Z,25
2017-02-28T11:01:47.675Z,25
2017-02-28T11:02:57.998Z,35
2017-02-28T11:04:08.682Z,35
2017-02-28T11:05:18.726Z,30
2017-02-28T11:06:28.993Z,30
2017-02-28T11:07:38.877Z,35
2017-02-28T11:08:49.181Z,35
2017-02-28T11:09:59.446Z,30
2017-02-28T11:11:09.841Z,30
2017-02-28T11:12:20.130Z,25
2017-02-28T11:13:30.879Z,30
2017-02-28T11:14:40.804Z,30
2017-02-28T11:15:51.084Z,35
2017-02-28T11:17:01.472Z,35
2017-02-28T11:18:12.141Z,35
2017-02-28T11:19:22.449Z,35
2017-02-28T11:20:32.333Z,35
2017-02-28T11:21:41.858Z,40
2017-02-28T11:22:52.625Z,40
2017-02-28T11:24:03.324Z,40
2017-02-28T11:25:13.601Z,40
2017-02-28T11:26:24.269Z,45
2017-02-28T11:27:33.777Z,45
2017-02-28T11:28:44.552Z,45
2017-02-28T11:29:54.822Z,40
2017-02-28T11:31:05.517Z,40
2017-02-28T11:32:16.188Z,40
2017-02-28T11:33:26.868Z,40
2017-02-28T11:34:37.741Z,40
2017-02-28T11:35:48.174Z,45
2017-02-28T11:36:58.481Z,45
2017-02-28T11:38:08.775Z,45
2017-02-28T11:39:19.062Z,45
2017-02-28T11:40:29.961Z,45
2017-02-28T11:41:40.630Z,50
2017-02-28T11:42:50.914Z,50
2017-02-28T11:44:01.614Z,50
2017-02-28T11:45:12.291Z,50
2017-02-28T11:46:22.725Z,50
2017-02-28T11:47:33.000Z,50
2017-02-28T11:48:43.653Z,50
2017-02-28T11:49:53.604Z,50
2017-02-28T11:51:04.579Z,45
2017-02-28T11:52:15.294Z,50
2017-02-28T11:53:25.201Z,50
2017-02-28T11:54:34.708Z,50
2017-02-28T11:55:45.414Z,50
2017-02-28T11:56:55.313Z,45
2017-02-28T11:58:05.005Z,45
2017-02-28T11:59:15.683Z,45
2017-02-28T12:00:25.958Z,45
2017-02-28T12:01:36.639Z,40
2017-02-28T12:02:46.869Z,35
2017-02-28T12:03:56.910Z,30
2017-02-28T12:05:07.183Z,20
2017-02-28T12:06:17.881Z,20
2017-02-28T12:07:28.149Z,25
2017-02-28T12:08:38.040Z,20
2017-02-28T12:09:48.467Z,15
2017-02-28T12:10:58.760Z,15
2017-02-28T12:12:09.100Z,15
2017-02-28T12:13:19.367Z,10
2017-02-28T12:14:28.891Z,10
2017-02-28T12:15:41.468Z,10
2017-02-28T12:16:52.148Z,10
2017-02-28T12:18:02.829Z,5
2017-02-28T12:19:13.124Z,5
2017-02-28T12:20:23.001Z,5
2017-02-28T12:21:33.818Z,5
2017-02-28T12:22:44.161Z,5
2017-02-28T12:23:54.835Z,10
2017-02-28T12:25:05.512Z,10
2017-02-28T12:26:16.212Z,10
2017-02-28T12:27:26.641Z,10
2017-02-28T12:28:37.298Z,10
2017-02-28T12:29:47.609Z,10
2017-02-28T12:30:57.517Z,10
2017-02-28T12:32:08.169Z,5
2017-02-28T12:33:18.970Z,5
2017-02-28T12:34:28.865Z,10
2017-02-28T12:35:39.169Z,15
2017-02-28T12:36:49.470Z,15
2017-02-28T12:38:00.140Z,10
2017-02-28T12:39:11.330Z,10
2017-02-28T12:40:22.502Z,10
2017-02-28T12:41:33.190Z,15
2017-02-28T12:42:43.209Z,15
2017-02-28T12:43:53.941Z,15
2017-02-28T12:45:04.416Z,15
2017-02-28T12:46:13.914Z,15
2017-02-28T12:47:24.186Z,20
2017-02-28T12:48:34.080Z,20
2017-02-28T12:49:43.562Z,20
2017-02-28T12:50:54.004Z,20
2017-02-28T12:52:03.893Z,20
2017-02-28T12:53:14.173Z,20
2017-02-28T12:54:24.875Z,25
2017-02-28T12:55:35.556Z,25
2017-02-28T12:56:46.379Z,30
2017-02-28T12:57:57.042Z,30
2017-02-28T12:59:07.695Z,35
2017-02-28T13:00:18.677Z,35
2017-02-28T13:01:28.941Z,35
2017-02-28T13:02:38.199Z,35
2017-02-28T13:03:48.893Z,35
2017-02-28T13:04:59.629Z,30
2017-02-28T13:06:09.889Z,30
2017-02-28T13:07:21.591Z,30
2017-02-28T13:08:31.998Z,30
2017-02-28T13:09:41.569Z,35
2017-02-28T13:10:51.838Z,35
2017-02-28T13:12:02.109Z,35
2017-02-28T13:13:12.790Z,35
2017-02-28T13:14:22.436Z,35
2017-02-28T13:15:32.762Z,35
2017-02-28T13:16:42.657Z,35
2017-02-28T13:17:52.565Z,35
2017-02-28T13:19:02.827Z,35
2017-02-28T13:20:13.647Z,35
2017-02-28T13:21:23.546Z,35
2017-02-28T13:22:34.227Z,35
2017-02-28T13:23:44.132Z,35
2017-02-28T13:24:54.024Z,35
2017-02-28T13:26:04.433Z,35
2017-02-28T13:27:14.701Z,35
2017-02-28T13:28:25.400Z,35
2017-02-28T13:29:34.907Z,35
2017-02-28T13:30:45.168Z,30
2017-02-28T13:31:55.995Z,30
2017-02-28T13:33:06.244Z,30
2017-02-28T13:34:16.900Z,30
2017-02-28T13:35:58.864Z,25
2017-02-28T13:37:10.830Z,20
2017-02-28T13:38:21.402Z,20
2017-02-28T13:39:31.318Z,20
2017-02-28T13:40:41.580Z,20
2017-02-28T13:41:52.255Z,20
2017-02-28T13:43:03.182Z,20
2017-02-28T13:44:13.841Z,20
2017-02-28T13:45:24.148Z,15
2017-02-28T13:46:34.429Z,15
2017-02-28T13:47:44.354Z,15
2017-02-28T13:48:54.628Z,15
2017-02-28T13:50:04.933Z,15
2017-02-28T13:51:14.842Z,15
2017-02-28T13:52:25.116Z,10
2017-02-28T13:53:35.026Z,10
2017-02-28T13:54:45.014Z,15
2017-02-28T13:55:55.321Z,15
2017-02-28T13:57:05.214Z,15
2017-02-28T13:58:15.886Z,15
2017-02-28T13:59:26.160Z,15
2017-02-28T14:00:36.592Z,20
2017-02-28T14:01:46.484Z,15
2017-02-28T14:02:57.167Z,15
2017-02-28T14:04:07.068Z,15
2017-02-28T14:05:16.570Z,10
2017-02-28T14:06:27.499Z,10
2017-02-28T14:07:38.195Z,10
2017-02-28T14:08:48.885Z,10
2017-02-28T14:09:59.836Z,10
2017-02-28T14:11:10.116Z,10
2017-02-28T14:12:20.930Z,10
2017-02-28T14:13:30.827Z,10
2017-02-28T14:14:40.743Z,10
2017-02-28T14:15:51.421Z,10
2017-02-28T14:17:01.721Z,10
2017-02-28T14:18:11.890Z,10
2017-02-28T14:19:22.554Z,10
2017-02-28T14:20:32.453Z,10
2017-02-28T14:21:42.734Z,15
2017-02-28T14:22:52.636Z,10
2017-02-28T14:24:02.492Z,10
2017-02-28T14:25:12.782Z,10
2017-02-28T14:26:22.709Z,10
2017-02-28T14:27:33.001Z,10
2017-02-28T14:28:43.683Z,10
2017-02-28T14:29:55.103Z,10
2017-02-28T14:31:04.631Z,10
2017-02-28T14:32:15.299Z,5
2017-02-28T14:33:25.592Z,5
2017-02-28T14:34:35.087Z,5
2017-02-28T14:35:45.882Z,5
2017-02-28T14:36:56.541Z,5
2017-02-28T14:38:06.813Z,5
2017-02-28T14:39:17.491Z,5
2017-02-28T14:40:28.166Z,5
2017-02-28T14:41:38.600Z,5
2017-02-28T14:42:48.877Z,0
2017-02-28T14:43:59.566Z,0
2017-02-28T14:45:10.235Z,0
2017-02-28T14:46:20.113Z,0
2017-02-28T14:47:30.640Z,0
2017-02-28T14:48:40.505Z,0
2017-02-28T14:49:51.198Z,0
2017-02-28T14:51:01.470Z,0
2017-02-28T14:52:12.196Z,0
2017-02-28T14:53:22.391Z,0
2017-02-28T14:54:33.067Z,0
2017-02-28T14:55:43.337Z,0
2017-02-28T14:56:53.628Z,0
2017-02-28T14:58:04.289Z,0
2017-02-28T14:59:17.805Z,0
2017-02-28T15:00:28.481Z,0
2017-02-28T15:01:38.743Z,0
2017-02-28T15:02:49.418Z,0
2017-02-28T15:04:00.075Z,5
2017-02-28T15:05:10.490Z,5
2017-02-28T15:06:20.771Z,5
2017-02-28T15:07:31.057Z,5
2017-02-28T15:08:40.954Z,5
2017-02-28T15:09:51.610Z,5
2017-02-28T15:11:02.424Z,5
2017-02-28T15:12:13.096Z,5
2017-02-28T15:13:23.383Z,5
2017-02-28T15:14:33.688Z,5
2017-02-28T15:15:43.971Z,5
2017-02-28T15:16:54.012Z,5
2017-02-28T15:18:04.286Z,5
2017-02-28T15:19:14.944Z,5
2017-02-28T15:20:25.243Z,5
2017-02-28T15:21:35.511Z,5
2017-02-28T15:22:45.939Z,5
2017-02-28T15:23:56.634Z,5
2017-02-28T15:25:06.926Z,5
2017-02-28T15:26:17.228Z,0
2017-02-28T15:27:27.954Z,0
2017-02-28T15:28:38.531Z,0
2017-02-28T15:29:48.819Z,0
2017-02-28T15:30:59.488Z,0
2017-02-28T15:32:09.779Z,0
2017-02-28T15:33:20.049Z,0
2017-02-28T15:34:30.299Z,0
2017-02-28T15:35:40.980Z,0
2017-02-28T15:36:50.869Z,5
2017-02-28T15:38:01.576Z,5
2017-02-28T15:39:11.850Z,5
2017-02-28T15:40:22.593Z,5
2017-02-28T15:41:33.257Z,5
2017-02-28T15:42:43.948Z,5
2017-02-28T15:43:54.607Z,0
2017-02-28T15:45:04.132Z,0
2017-02-28T15:46:14.564Z,0
2017-02-28T15:47:25.241Z,0
2017-02-28T15:48:35.556Z,0
2017-02-28T15:49:45.820Z,0
2017-02-28T15:50:56.472Z,0
2017-02-28T15:52:07.049Z,0
2017-02-28T15:53:17.731Z,0
2017-02-28T15:54:28.399Z,0
2017-02-28T15:55:38.686Z,0
2017-02-28T15:56:49.361Z,0
2017-02-28T15:57:59.939Z,0
2017-02-28T15:59:09.842Z,0
2017-02-28T16:00:20.107Z,0
2017-02-28T16:01:30.379Z,0
2017-02-28T16:02:40.681Z,0
2017-02-28T16:03:50.860Z,0
2017-02-28T16:05:01.145Z,0
2017-02-28T16:06:10.643Z,0
2017-02-28T16:07:20.948Z,0
2017-02-28T16:08:31.253Z,0
2017-02-28T16:09:42.073Z,0
2017-02-28T16:10:52.724Z,0
2017-02-28T16:12:03.424Z,0
2017-02-28T16:13:13.752Z,0
2017-02-28T16:14:24.049Z,0
2017-02-28T16:15:34.666Z,0
2017-02-28T16:16:44.953Z,0
2017-02-28T16:17:54.877Z,0
2017-02-28T16:19:04.779Z,0
2017-02-28T16:20:14.653Z,0
2017-02-28T16:21:25.058Z,0
2017-02-28T16:22:35.330Z,0
2017-02-28T16:23:45.667Z,0
2017-02-28T16:24:55.960Z,0
2017-02-28T16:26:06.213Z,0
2017-02-28T16:27:16.850Z,0
2017-02-28T16:28:27.119Z,0
2017-02-28T16:29:37.774Z,0
2017-02-28T16:30:47.668Z,0
2017-02-28T16:31:58.063Z,0
2017-02-28T16:33:09.186Z,0
2017-02-28T16:34:19.493Z,0
2017-02-28T16:35:30.172Z,0
2017-02-28T16:36:40.465Z,0
2017-02-28T16:37:50.746Z,0
2017-02-28T16:39:01.507Z,0
2017-02-28T16:40:11.776Z,0
2017-02-28T16:41:22.074Z,0
2017-02-28T16:42:32.635Z,0
2017-02-28T16:43:43.291Z,0
2017-02-28T16:44:52.948Z,0
2017-02-28T16:46:02.861Z,0
2017-02-28T16:47:13.171Z,0
2017-02-28T16:48:23.828Z,0
2017-02-28T16:49:34.535Z,0
2017-02-28T16:50:44.579Z,0
2017-02-28T16:51:55.267Z,0
2017-02-28T16:53:05.147Z,0
2017-02-28T16:54:15.439Z,0
2017-02-28T16:55:25.717Z,0
2017-02-28T16:56:35.372Z,0
2017-02-28T16:57:46.070Z,0
2017-02-28T16:58:56.359Z,0
2017-02-28T17:00:06.653Z,0
2017-02-28T17:01:16.555Z,0
2017-02-28T17:02:27.362Z,0
2017-02-28T17:03:36.894Z,0
2017-02-28T17:04:47.586Z,0